Main page
METAR-TAF:

METAR-TAF

Airports :

Aurillac – Tronquières Airport

Aurillac, France

latitude: 44-53N, longitude: 002-25E, elevation: 639 m

Current weather observation

The report was made 23 minutes ago, at 20:30 UTC
Wind 4 kt from the Southwest
Temperature -2°C
Humidity 74%
Pressure 1029 hPa
Visibility 10 km or more
no clouds below 1500 m and no cumulonimbus

METAR: LFLW 212030Z AUTO 22004KT CAVOK M02/M06 Q1029

Time: 21:53 (20:53 UTC)

Forecast

The report was made 6 hours and 53 minutes ago, at 14:00 UTC
Forecast valid from 21 at 15 UTC to 21 at 24 UTC
Wind 10 kt from the North/Northwest
Visibility 10 km or more
no clouds below 1500 m and no cumulonimbus
Becoming
from 21 at 17 UTC to 21 at 19 UTC
Wind 3 kt from variable directions

TAF: LFLW 211400Z 2115/2124 34010KT CAVOK BECMG 2117/2119 VRB03KT

Weather observations and forecasts of more than 4000 airports (METAR and TAF reports).

The available stations are represented by yellow and red dots on the map.

Hover mouse over dot to see the name of the station.

Then click to see weather observations and forecasts.

To change the map : click on the green buttons with a black cross to zoom in, on the green button with a dash to zoom out, or on the green arrows for adjacent maps.


METAR-TAF: